sensor_id;sensor_type;location;lat;lon;timestamp;pressure;altitude;pressure_sealevel;temperature;humidity
76623;BME280;73145;48.170;16.350;2023-10-08T00:01:14;99780.84;;;19.80;37.38
76623;BME280;73145;48.170;16.350;2023-10-08T00:03:44;99786.59;;;19.79;37.73
76623;BME280;73145;48.170;16.350;2023-10-08T00:06:17;99763.25;;;19.78;37.77
76623;BME280;73145;48.170;16.350;2023-10-08T00:08:44;99772.22;;;19.78;37.78
76623;BME280;73145;48.170;16.350;2023-10-08T00:11:10;99772.53;;;19.77;37.83
76623;BME280;73145;48.170;16.350;2023-10-08T00:13:36;99783.41;;;19.77;37.59
76623;BME280;73145;48.170;16.350;2023-10-08T00:16:12;99758.94;;;19.77;37.68
76623;BME280;73145;48.170;16.350;2023-10-08T00:18:41;99749.97;;;19.76;37.70
76623;BME280;73145;48.170;16.350;2023-10-08T00:21:14;99746.94;;;19.78;37.85
76623;BME280;73145;48.170;16.350;2023-10-08T00:23:40;99764.38;;;19.77;37.86
76623;BME280;73145;48.170;16.350;2023-10-08T00:26:07;99758.59;;;19.78;37.67
76623;BME280;73145;48.170;16.350;2023-10-08T00:28:33;99755.09;;;19.78;37.95
76623;BME280;73145;48.170;16.350;2023-10-08T00:30:58;99748.84;;;19.77;38.22
76623;BME280;73145;48.170;16.350;2023-10-08T00:33:32;99739.56;;;19.78;38.08
76623;BME280;73145;48.170;16.350;2023-10-08T00:35:57;99731.88;;;19.80;37.86
76623;BME280;73145;48.170;16.350;2023-10-08T00:38:22;99726.94;;;19.82;37.82
76623;BME280;73145;48.170;16.350;2023-10-08T00:40:50;99720.84;;;19.85;37.95
76623;BME280;73145;48.170;16.350;2023-10-08T00:43:33;99721.78;;;19.89;37.85
76623;BME280;73145;48.170;16.350;2023-10-08T00:46:03;99739.38;;;19.92;37.89
76623;BME280;73145;48.170;16.350;2023-10-08T00:48:49;99721.63;;;19.94;37.77
76623;BME280;73145;48.170;16.350;2023-10-08T00:51:17;99737.31;;;19.97;37.93
76623;BME280;73145;48.170;16.350;2023-10-08T00:53:56;99737.00;;;19.99;37.57
76623;BME280;73145;48.170;16.350;2023-10-08T00:56:32;99739.38;;;20.00;37.80
76623;BME280;73145;48.170;16.350;2023-10-08T00:59:16;99742.91;;;20.01;37.51
76623;BME280;73145;48.170;16.350;2023-10-08T01:01:49;99751.53;;;20.03;37.74
76623;BME280;73145;48.170;16.350;2023-10-08T01:04:29;99761.31;;;20.04;37.59
76623;BME280;73145;48.170;16.350;2023-10-08T01:06:59;99766.75;;;20.04;37.34
76623;BME280;73145;48.170;16.350;2023-10-08T01:09:27;99750.09;;;20.06;37.83
76623;BME280;73145;48.170;16.350;2023-10-08T01:12:16;99749.28;;;20.05;37.70
76623;BME280;73145;48.170;16.350;2023-10-08T01:14:45;99754.72;;;20.05;37.71
76623;BME280;73145;48.170;16.350;2023-10-08T01:17:13;99747.69;;;20.04;37.45
76623;BME280;73145;48.170;16.350;2023-10-08T01:19:45;99735.69;;;20.05;37.59
76623;BME280;73145;48.170;16.350;2023-10-08T01:22:15;99750.88;;;20.06;37.34
76623;BME280;73145;48.170;16.350;2023-10-08T01:24:46;99742.72;;;20.06;37.64
76623;BME280;73145;48.170;16.350;2023-10-08T01:27:17;99725.28;;;20.07;37.53
76623;BME280;73145;48.170;16.350;2023-10-08T01:29:47;99719.03;;;20.07;37.60
76623;BME280;73145;48.170;16.350;2023-10-08T01:32:15;99733.44;;;20.07;37.56
76623;BME280;73145;48.170;16.350;2023-10-08T01:34:42;99735.03;;;20.08;37.68
76623;BME280;73145;48.170;16.350;2023-10-08T01:37:14;99728.47;;;20.09;37.64
76623;BME280;73145;48.170;16.350;2023-10-08T01:39:45;99740.97;;;20.10;37.76
76623;BME280;73145;48.170;16.350;2023-10-08T01:42:12;99732.78;;;20.10;37.64
76623;BME280;73145;48.170;16.350;2023-10-08T01:44:44;99740.97;;;20.10;37.62
76623;BME280;73145;48.170;16.350;2023-10-08T01:47:11;99731.66;;;20.11;37.51
76623;BME280;73145;48.170;16.350;2023-10-08T01:49:37;99732.00;;;20.10;37.56
76623;BME280;73145;48.170;16.350;2023-10-08T01:52:04;99719.19;;;20.10;37.76
76623;BME280;73145;48.170;16.350;2023-10-08T01:54:34;99740.97;;;20.10;37.75
76623;BME280;73145;48.170;16.350;2023-10-08T01:57:03;99745.59;;;20.10;37.59
76623;BME280;73145;48.170;16.350;2023-10-08T01:59:31;99738.22;;;20.10;37.38
76623;BME280;73145;48.170;16.350;2023-10-08T02:01:57;99741.75;;;20.11;37.61
76623;BME280;73145;48.170;16.350;2023-10-08T02:04:23;99731.19;;;20.09;37.50
76623;BME280;73145;48.170;16.350;2023-10-08T02:06:48;99731.19;;;20.09;37.71
76623;BME280;73145;48.170;16.350;2023-10-08T02:09:14;99733.91;;;20.09;37.58
76623;BME280;73145;48.170;16.350;2023-10-08T02:11:47;99737.75;;;20.08;37.63
76623;BME280;73145;48.170;16.350;2023-10-08T02:14:17;99734.25;;;20.08;37.60
76623;BME280;73145;48.170;16.350;2023-10-08T02:16:43;99742.72;;;20.06;37.68
76623;BME280;73145;48.170;16.350;2023-10-08T02:19:09;99737.28;;;20.06;37.60
76623;BME280;73145;48.170;16.350;2023-10-08T02:21:38;99733.75;;;20.06;37.56
76623;BME280;73145;48.170;16.350;2023-10-08T02:24:07;99746.91;;;20.03;37.49
76623;BME280;73145;48.170;16.350;2023-10-08T02:26:33;99739.84;;;20.02;37.69
76623;BME280;73145;48.170;16.350;2023-10-08T02:29:03;99741.78;;;20.02;37.55
76623;BME280;73145;48.170;16.350;2023-10-08T02:31:36;99733.94;;;20.00;37.55
76623;BME280;73145;48.170;16.350;2023-10-08T02:34:03;99739.72;;;19.99;37.55
76623;BME280;73145;48.170;16.350;2023-10-08T02:36:28;99736.50;;;19.97;37.47
76623;BME280;73145;48.170;16.350;2023-10-08T02:38:53;99740.34;;;19.96;37.84
76623;BME280;73145;48.170;16.350;2023-10-08T02:41:20;99731.69;;;19.94;37.67
76623;BME280;73145;48.170;16.350;2023-10-08T02:43:46;99738.25;;;19.93;37.88
76623;BME280;73145;48.170;16.350;2023-10-08T02:46:13;99733.16;;;19.91;37.87
76623;BME280;73145;48.170;16.350;2023-10-08T02:48:41;99745.94;;;19.91;37.89
76623;BME280;73145;48.170;16.350;2023-10-08T02:51:06;99730.28;;;19.88;38.32
76623;BME280;73145;48.170;16.350;2023-10-08T02:53:41;99731.06;;;19.88;38.15
76623;BME280;73145;48.170;16.350;2023-10-08T02:56:10;99730.59;;;19.86;38.15
76623;BME280;73145;48.170;16.350;2023-10-08T02:58:39;99727.06;;;19.86;38.24
76623;BME280;73145;48.170;16.350;2023-10-08T03:01:07;99723.56;;;19.85;38.44
76623;BME280;73145;48.170;16.350;2023-10-08T03:03:32;99723.56;;;19.85;38.04
76623;BME280;73145;48.170;16.350;2023-10-08T03:05:58;99727.06;;;19.86;38.51
76623;BME280;73145;48.170;16.350;2023-10-08T03:08:23;99728.19;;;19.85;38.67
76623;BME280;73145;48.170;16.350;2023-10-08T03:10:52;99722.75;;;19.85;38.89
76623;BME280;73145;48.170;16.350;2023-10-08T03:13:21;99710.28;;;19.84;38.97
76623;BME280;73145;48.170;16.350;2023-10-08T03:15:47;99721.16;;;19.84;39.04
76623;BME280;73145;48.170;16.350;2023-10-08T03:18:28;99719.56;;;19.83;38.82
76623;BME280;73145;48.170;16.350;2023-10-08T03:21:15;99721.50;;;19.82;38.97
76623;BME280;73145;48.170;16.350;2023-10-08T03:23:48;99715.25;;;19.82;39.25
76623;BME280;73145;48.170;16.350;2023-10-08T03:26:16;99737.00;;;19.82;39.06
76623;BME280;73145;48.170;16.350;2023-10-08T03:29:03;99739.72;;;19.82;39.35
76623;BME280;73145;48.170;16.350;2023-10-08T03:31:41;99747.41;;;19.80;39.28
76623;BME280;73145;48.170;16.350;2023-10-08T03:34:19;99735.41;;;19.81;39.26
76623;BME280;73145;48.170;16.350;2023-10-08T03:36:45;99715.91;;;19.79;39.70
76623;BME280;73145;48.170;16.350;2023-10-08T03:39:12;99722.47;;;19.78;39.55
76623;BME280;73145;48.170;16.350;2023-10-08T03:41:44;99729.81;;;19.77;39.69
76623;BME280;73145;48.170;16.350;2023-10-08T03:44:30;99720.84;;;19.77;40.05
76623;BME280;73145;48.170;16.350;2023-10-08T03:46:55;99719.25;;;19.76;39.92
76623;BME280;73145;48.170;16.350;2023-10-08T03:49:22;99732.38;;;19.73;39.94
76623;BME280;73145;48.170;16.350;2023-10-08T03:51:48;99732.22;;;19.70;40.33
76623;BME280;73145;48.170;16.350;2023-10-08T03:54:17;99725.03;;;19.65;40.35
76623;BME280;73145;48.170;16.350;2023-10-08T03:56:58;99738.81;;;19.60;40.57
76623;BME280;73145;48.170;16.350;2023-10-08T03:59:25;99745.69;;;19.58;40.51
76623;BME280;73145;48.170;16.350;2023-10-08T04:01:54;99743.28;;;19.56;40.56
76623;BME280;73145;48.170;16.350;2023-10-08T04:04:23;99752.88;;;19.54;40.60
76623;BME280;73145;48.170;16.350;2023-10-08T04:06:56;99746.94;;;19.52;40.79
76623;BME280;73145;48.170;16.350;2023-10-08T04:09:41;99747.78;;;19.52;40.88
76623;BME280;73145;48.170;16.350;2023-10-08T04:12:07;99739.63;;;19.52;40.79
76623;BME280;73145;48.170;16.350;2023-10-08T04:14:36;99744.53;;;19.50;40.68
76623;BME280;73145;48.170;16.350;2023-10-08T04:17:01;99742.94;;;19.49;41.03
76623;BME280;73145;48.170;16.350;2023-10-08T04:19:29;99718.81;;;19.48;40.95
76623;BME280;73145;48.170;16.350;2023-10-08T04:21:56;99715.59;;;19.46;41.04
76623;BME280;73145;48.170;16.350;2023-10-08T04:24:26;99717.22;;;19.47;41.03
76623;BME280;73145;48.170;16.350;2023-10-08T04:27:01;99707.78;;;19.44;41.07
76623;BME280;73145;48.170;16.350;2023-10-08T04:29:28;99708.09;;;19.42;41.01
76623;BME280;73145;48.170;16.350;2023-10-08T04:31:58;99719.28;;;19.41;41.13
76623;BME280;73145;48.170;16.350;2023-10-08T04:34:33;99727.75;;;19.39;41.42
76623;BME280;73145;48.170;16.350;2023-10-08T04:36:58;99726.97;;;19.39;41.05
76623;BME280;73145;48.170;16.350;2023-10-08T04:39:27;99710.19;;;19.37;41.39
76623;BME280;73145;48.170;16.350;2023-10-08T04:41:59;99706.66;;;19.36;41.40
76623;BME280;73145;48.170;16.350;2023-10-08T04:44:32;99705.38;;;19.34;41.58
76623;BME280;73145;48.170;16.350;2023-10-08T04:46:57;99694.50;;;19.34;41.87
76623;BME280;73145;48.170;16.350;2023-10-08T04:49:29;99703.78;;;19.33;41.44
76623;BME280;73145;48.170;16.350;2023-10-08T04:51:57;99704.28;;;19.35;41.34
76623;BME280;73145;48.170;16.350;2023-10-08T04:54:27;99699.63;;;19.35;41.64
76623;BME280;73145;48.170;16.350;2023-10-08T04:57:00;99706.66;;;19.36;41.68
76623;BME280;73145;48.170;16.350;2023-10-08T04:59:27;99714.81;;;19.36;41.71
76623;BME280;73145;48.170;16.350;2023-10-08T05:02:01;99712.56;;;19.38;41.79
76623;BME280;73145;48.170;16.350;2023-10-08T05:04:50;99717.69;;;19.40;41.71
76623;BME280;73145;48.170;16.350;2023-10-08T05:07:54;99715.44;;;19.42;41.70
76623;BME280;73145;48.170;16.350;2023-10-08T05:10:26;99730.16;;;19.41;41.99
76623;BME280;73145;48.170;16.350;2023-10-08T05:12:52;99731.28;;;19.40;41.97
76623;BME280;73145;48.170;16.350;2023-10-08T05:15:31;99735.13;;;19.39;42.09
76623;BME280;73145;48.170;16.350;2023-10-08T05:18:14;99738.47;;;19.36;42.48
76623;BME280;73145;48.170;16.350;2023-10-08T05:20:45;99743.13;;;19.35;42.32
76623;BME280;73145;48.170;16.350;2023-10-08T05:23:14;99744.22;;;19.34;42.57
76623;BME280;73145;48.170;16.350;2023-10-08T05:25:49;99748.88;;;19.34;42.45
76623;BME280;73145;48.170;16.350;2023-10-08T05:28:38;99742.31;;;19.35;42.60
76623;BME280;73145;48.170;16.350;2023-10-08T05:31:22;99742.00;;;19.36;42.61
76623;BME280;73145;48.170;16.350;2023-10-08T05:34:02;99756.06;;;19.38;42.56
76623;BME280;73145;48.170;16.350;2023-10-08T05:36:39;99749.81;;;19.38;42.82
76623;BME280;73145;48.170;16.350;2023-10-08T05:39:23;99753.34;;;19.38;42.71
76623;BME280;73145;48.170;16.350;2023-10-08T05:42:03;99756.06;;;19.38;42.63
76623;BME280;73145;48.170;16.350;2023-10-08T05:44:41;99768.84;;;19.38;42.79
76623;BME280;73145;48.170;16.350;2023-10-08T05:47:12;99762.63;;;19.37;43.08
76623;BME280;73145;48.170;16.350;2023-10-08T05:49:54;99759.09;;;19.37;42.95
76623;BME280;73145;48.170;16.350;2023-10-08T05:52:39;99762.63;;;19.37;42.91
76623;BME280;73145;48.170;16.350;2023-10-08T05:55:25;99763.41;;;19.38;42.99
76623;BME280;73145;48.170;16.350;2023-10-08T05:57:54;99756.06;;;19.38;43.11
76623;BME280;73145;48.170;16.350;2023-10-08T06:00:46;99761.19;;;19.40;43.09
76623;BME280;73145;48.170;16.350;2023-10-08T06:03:28;99760.06;;;19.41;43.38
76623;BME280;73145;48.170;16.350;2023-10-08T06:06:00;99760.84;;;19.41;43.20
76623;BME280;73145;48.170;16.350;2023-10-08T06:08:38;99778.78;;;19.42;42.97
76623;BME280;73145;48.170;16.350;2023-10-08T06:11:16;99777.66;;;19.44;43.24
76623;BME280;73145;48.170;16.350;2023-10-08T06:14:02;99786.28;;;19.46;43.34
76623;BME280;73145;48.170;16.350;2023-10-08T06:16:36;99785.47;;;19.45;43.30
76623;BME280;73145;48.170;16.350;2023-10-08T06:19:10;99784.03;;;19.48;43.02
76623;BME280;73145;48.170;16.350;2023-10-08T06:21:39;99805.47;;;19.49;43.39
76623;BME280;73145;48.170;16.350;2023-10-08T06:24:06;99797.00;;;19.51;43.22
76623;BME280;73145;48.170;16.350;2023-10-08T06:26:40;99806.47;;;19.53;43.30
76623;BME280;73145;48.170;16.350;2023-10-08T06:29:14;99819.72;;;19.55;43.18
76623;BME280;73145;48.170;16.350;2023-10-08T06:31:55;99806.78;;;19.60;43.32
76623;BME280;73145;48.170;16.350;2023-10-08T06:34:22;99810.94;;;19.66;43.31
76623;BME280;73145;48.170;16.350;2023-10-08T06:36:50;99812.38;;;19.72;43.13
76623;BME280;73145;48.170;16.350;2023-10-08T06:39:21;99799.09;;;19.80;43.12
76623;BME280;73145;48.170;16.350;2023-10-08T06:41:54;99807.56;;;19.87;42.90
76623;BME280;73145;48.170;16.350;2023-10-08T06:44:22;99818.75;;;19.94;43.00
76623;BME280;73145;48.170;16.350;2023-10-08T06:46:48;99816.38;;;20.01;43.16
76623;BME280;73145;48.170;16.350;2023-10-08T06:49:14;99835.25;;;20.06;42.95
76623;BME280;73145;48.170;16.350;2023-10-08T06:51:40;99837.00;;;20.11;42.94
76623;BME280;73145;48.170;16.350;2023-10-08T06:54:07;99837.94;;;20.15;43.05
76623;BME280;73145;48.170;16.350;2023-10-08T06:56:36;99848.97;;;20.18;42.60
76623;BME280;73145;48.170;16.350;2023-10-08T06:59:01;99861.13;;;20.21;42.82
76623;BME280;73145;48.170;16.350;2023-10-08T07:01:28;99854.72;;;20.25;42.87
76623;BME280;73145;48.170;16.350;2023-10-08T07:04:05;99843.19;;;20.28;42.82
76623;BME280;73145;48.170;16.350;2023-10-08T07:06:34;99844.16;;;20.32;42.64
76623;BME280;73145;48.170;16.350;2023-10-08T07:09:03;99839.16;;;20.34;42.64
76623;BME280;73145;48.170;16.350;2023-10-08T07:11:32;99843.16;;;20.37;42.50
76623;BME280;73145;48.170;16.350;2023-10-08T07:14:05;99833.72;;;20.34;42.57
76623;BME280;73145;48.170;16.350;2023-10-08T07:16:33;99825.56;;;20.34;42.75
76623;BME280;73145;48.170;16.350;2023-10-08T07:18:59;99826.69;;;20.33;42.69
76623;BME280;73145;48.170;16.350;2023-10-08T07:21:30;99830.22;;;20.34;42.63
76623;BME280;73145;48.170;16.350;2023-10-08T07:24:10;99829.88;;;20.35;42.75
76623;BME280;73145;48.170;16.350;2023-10-08T07:26:40;99830.06;;;20.39;42.90
76623;BME280;73145;48.170;16.350;2023-10-08T07:29:12;99837.22;;;20.52;42.70
76623;BME280;73145;48.170;16.350;2023-10-08T07:31:39;99829.34;;;20.59;42.65
76623;BME280;73145;48.170;16.350;2023-10-08T07:34:07;99842.97;;;20.59;42.50
76623;BME280;73145;48.170;16.350;2023-10-08T07:36:45;99841.66;;;20.65;42.58
76623;BME280;73145;48.170;16.350;2023-10-08T07:39:15;99828.19;;;20.69;42.73
76623;BME280;73145;48.170;16.350;2023-10-08T07:41:52;99836.16;;;20.74;42.61
76623;BME280;73145;48.170;16.350;2023-10-08T07:44:22;99842.09;;;20.85;42.10
76623;BME280;73145;48.170;16.350;2023-10-08T07:46:49;99841.25;;;20.93;42.22
76623;BME280;73145;48.170;16.350;2023-10-08T07:49:16;99845.69;;;20.97;42.31
76623;BME280;73145;48.170;16.350;2023-10-08T07:51:42;99855.28;;;21.04;42.03
76623;BME280;73145;48.170;16.350;2023-10-08T07:54:17;99877.09;;;21.04;42.08
76623;BME280;73145;48.170;16.350;2023-10-08T07:56:44;99884.78;;;21.02;42.27
76623;BME280;73145;48.170;16.350;2023-10-08T07:59:10;99892.03;;;20.97;42.27
76623;BME280;73145;48.170;16.350;2023-10-08T08:01:40;99898.94;;;20.95;42.61
76623;BME280;73145;48.170;16.350;2023-10-08T08:04:08;99887.88;;;20.91;42.54
76623;BME280;73145;48.170;16.350;2023-10-08T08:09:02;99900.09;;;20.85;42.76
76623;BME280;73145;48.170;16.350;2023-10-08T08:11:33;99899.63;;;20.83;43.13
76623;BME280;73145;48.170;16.350;2023-10-08T08:14:02;99907.31;;;20.81;42.96
76623;BME280;73145;48.170;16.350;2023-10-08T08:16:33;99915.31;;;20.78;43.18
76623;BME280;73145;48.170;16.350;2023-10-08T08:19:01;99911.00;;;20.77;43.09
76623;BME280;73145;48.170;16.350;2023-10-08T08:21:27;99910.50;;;20.75;43.06
76623;BME280;73145;48.170;16.350;2023-10-08T08:23:56;99917.41;;;20.72;43.20
76623;BME280;73145;48.170;16.350;2023-10-08T08:26:30;99914.69;;;20.72;43.32
76623;BME280;73145;48.170;16.350;2023-10-08T08:29:02;99915.34;;;20.69;43.50
76623;BME280;73145;48.170;16.350;2023-10-08T08:31:29;99912.94;;;20.67;43.76
76623;BME280;73145;48.170;16.350;2023-10-08T08:33:58;99915.19;;;20.65;44.02
76623;BME280;73145;48.170;16.350;2023-10-08T08:36:29;99930.25;;;20.63;43.84
76623;BME280;73145;48.170;16.350;2023-10-08T08:38:57;99928.97;;;20.60;44.28
76623;BME280;73145;48.170;16.350;2023-10-08T08:41:23;99933.63;;;20.60;44.34
76623;BME280;73145;48.170;16.350;2023-10-08T08:43:50;99930.75;;;20.56;44.55
76623;BME280;73145;48.170;16.350;2023-10-08T08:46:25;99936.53;;;20.55;44.67
76623;BME280;73145;48.170;16.350;2023-10-08T08:48:53;99940.03;;;20.55;45.09
76623;BME280;73145;48.170;16.350;2023-10-08T08:51:21;99947.41;;;20.55;45.10
76623;BME280;73145;48.170;16.350;2023-10-08T08:53:52;99955.59;;;20.55;45.57
76623;BME280;73145;48.170;16.350;2023-10-08T08:56:18;99964.56;;;20.55;45.96
76623;BME280;73145;48.170;16.350;2023-10-08T08:58:44;99968.41;;;20.54;46.24
76623;BME280;73145;48.170;16.350;2023-10-08T09:01:12;100014.38;;;20.56;46.44
76623;BME280;73145;48.170;16.350;2023-10-08T09:03:39;100015.81;;;20.53;46.80
76623;BME280;73145;48.170;16.350;2023-10-08T09:06:08;100031.19;;;20.49;47.13
76623;BME280;73145;48.170;16.350;2023-10-08T09:08:35;100030.56;;;20.44;47.88
76623;BME280;73145;48.170;16.350;2023-10-08T09:11:01;100043.81;;;20.36;48.26
76623;BME280;73145;48.170;16.350;2023-10-08T09:13:27;100064.78;;;20.27;48.75
76623;BME280;73145;48.170;16.350;2023-10-08T09:18:31;100073.25;;;20.09;49.74
76623;BME280;73145;48.170;16.350;2023-10-08T09:21:07;100085.41;;;20.02;49.95
76623;BME280;73145;48.170;16.350;2023-10-08T09:23:39;100088.59;;;19.96;50.02
76623;BME280;73145;48.170;16.350;2023-10-08T09:26:09;100098.28;;;19.88;50.39
76623;BME280;73145;48.170;16.350;2023-10-08T09:28:34;100106.75;;;19.78;50.52
76623;BME280;73145;48.170;16.350;2023-10-08T09:31:03;100102.06;;;19.70;50.36
76623;BME280;73145;48.170;16.350;2023-10-08T09:33:30;100122.66;;;19.62;50.73
76623;BME280;73145;48.170;16.350;2023-10-08T09:35:55;100125.22;;;19.59;50.55
76623;BME280;73145;48.170;16.350;2023-10-08T09:38:22;100119.91;;;19.54;50.31
76623;BME280;73145;48.170;16.350;2023-10-08T09:40:49;100145.28;;;19.49;50.93
76623;BME280;73145;48.170;16.350;2023-10-08T09:43:15;100139.19;;;19.44;50.91
76623;BME280;73145;48.170;16.350;2023-10-08T09:45:53;100156.72;;;19.37;51.05
76623;BME280;73145;48.170;16.350;2023-10-08T09:48:25;100157.16;;;19.31;51.36
76623;BME280;73145;48.170;16.350;2023-10-08T09:50:52;100149.75;;;19.23;51.04
76623;BME280;73145;48.170;16.350;2023-10-08T09:53:28;100162.19;;;19.15;51.42
76623;BME280;73145;48.170;16.350;2023-10-08T09:55:57;100175.09;;;19.09;51.65
76623;BME280;73145;48.170;16.350;2023-10-08T09:58:24;100187.16;;;19.03;51.62
76623;BME280;73145;48.170;16.350;2023-10-08T10:00:51;100188.38;;;18.97;51.73
76623;BME280;73145;48.170;16.350;2023-10-08T10:03:18;100204.50;;;18.94;51.72
76623;BME280;73145;48.170;16.350;2023-10-08T10:05:44;100203.78;;;18.88;51.60
76623;BME280;73145;48.170;16.350;2023-10-08T10:08:10;100228.06;;;18.85;51.58
76623;BME280;73145;48.170;16.350;2023-10-08T10:10:37;100235.00;;;18.77;51.77
76623;BME280;73145;48.170;16.350;2023-10-08T10:13:12;100223.94;;;18.73;51.76
76623;BME280;73145;48.170;16.350;2023-10-08T10:15:37;100225.66;;;18.69;52.15
76623;BME280;73145;48.170;16.350;2023-10-08T10:18:11;100232.31;;;18.63;51.83
76623;BME280;73145;48.170;16.350;2023-10-08T10:20:49;100232.38;;;18.58;52.37
76623;BME280;73145;48.170;16.350;2023-10-08T10:23:38;100235.09;;;18.58;52.07
76623;BME280;73145;48.170;16.350;2023-10-08T10:31:34;100256.94;;;18.53;51.58
76623;BME280;73145;48.170;16.350;2023-10-08T10:34:07;100265.38;;;18.52;51.95
76623;BME280;73145;48.170;16.350;2023-10-08T10:36:37;100258.63;;;18.49;51.90
76623;BME280;73145;48.170;16.350;2023-10-08T10:39:05;100264.97;;;18.44;52.06
76623;BME280;73145;48.170;16.350;2023-10-08T10:41:52;100277.84;;;18.39;52.17
76623;BME280;73145;48.170;16.350;2023-10-08T10:44:27;100279.53;;;18.35;52.46
76623;BME280;73145;48.170;16.350;2023-10-08T10:46:55;100291.28;;;18.30;52.22
76623;BME280;73145;48.170;16.350;2023-10-08T10:49:39;100303.84;;;18.26;52.72
76623;BME280;73145;48.170;16.350;2023-10-08T10:52:20;100305.84;;;18.21;52.46
76623;BME280;73145;48.170;16.350;2023-10-08T10:55:10;100317.28;;;18.18;52.67
76623;BME280;73145;48.170;16.350;2023-10-08T11:00:20;100302.28;;;18.06;53.05
76623;BME280;73145;48.170;16.350;2023-10-08T11:02:58;100318.34;;;18.03;53.01
76623;BME280;73145;48.170;16.350;2023-10-08T11:05:34;100325.25;;;17.95;53.37
76623;BME280;73145;48.170;16.350;2023-10-08T11:08:03;100337.81;;;17.91;53.51
76623;BME280;73145;48.170;16.350;2023-10-08T11:10:35;100347.94;;;17.86;53.62
76623;BME280;73145;48.170;16.350;2023-10-08T11:13:05;100355.03;;;17.81;53.75
76623;BME280;73145;48.170;16.350;2023-10-08T11:15:42;100357.53;;;17.78;53.57
76623;BME280;73145;48.170;16.350;2023-10-08T11:18:12;100339.44;;;17.73;53.70
76623;BME280;73145;48.170;16.350;2023-10-08T11:20:38;100364.72;;;17.69;53.72
76623;BME280;73145;48.170;16.350;2023-10-08T11:25:56;100353.72;;;17.60;54.14
76623;BME280;73145;48.170;16.350;2023-10-08T11:28:31;100343.16;;;17.59;53.60
76623;BME280;73145;48.170;16.350;2023-10-08T11:31:05;100355.19;;;17.52;53.77
76623;BME280;73145;48.170;16.350;2023-10-08T11:33:35;100343.38;;;17.43;53.96
76623;BME280;73145;48.170;16.350;2023-10-08T11:36:03;100348.66;;;17.35;54.10
76623;BME280;73145;48.170;16.350;2023-10-08T11:38:39;100371.19;;;17.30;54.45
76623;BME280;73145;48.170;16.350;2023-10-08T11:41:12;100372.56;;;17.28;54.67
76623;BME280;73145;48.170;16.350;2023-10-08T11:43:52;100375.41;;;17.17;55.15
76623;BME280;73145;48.170;16.350;2023-10-08T11:46:29;100369.81;;;17.09;55.34
76623;BME280;73145;48.170;16.350;2023-10-08T11:49:06;100364.25;;;17.00;55.60
76623;BME280;73145;48.170;16.350;2023-10-08T11:51:35;100375.78;;;16.87;56.14
76623;BME280;73145;48.170;16.350;2023-10-08T11:54:01;100381.31;;;16.77;56.53
76623;BME280;73145;48.170;16.350;2023-10-08T11:56:30;100387.88;;;16.71;56.91
76623;BME280;73145;48.170;16.350;2023-10-08T11:58:57;100386.28;;;16.65;57.26
76623;BME280;73145;48.170;16.350;2023-10-08T12:01:24;100393.34;;;16.61;57.44
76623;BME280;73145;48.170;16.350;2023-10-08T12:03:50;100393.88;;;16.63;57.37
76623;BME280;73145;48.170;16.350;2023-10-08T12:06:16;100397.09;;;16.65;57.17
76623;BME280;73145;48.170;16.350;2023-10-08T12:08:46;100397.09;;;16.65;57.12
76623;BME280;73145;48.170;16.350;2023-10-08T12:11:13;100397.66;;;16.67;56.96
76623;BME280;73145;48.170;16.350;2023-10-08T12:13:39;100396.56;;;16.68;56.97
76623;BME280;73145;48.170;16.350;2023-10-08T12:16:09;100403.88;;;16.67;56.44
76623;BME280;73145;48.170;16.350;2023-10-08T12:18:41;100408.75;;;16.65;56.54
76623;BME280;73145;48.170;16.350;2023-10-08T12:21:09;100412.81;;;16.63;56.33
76623;BME280;73145;48.170;16.350;2023-10-08T12:23:41;100417.47;;;16.57;56.38
76623;BME280;73145;48.170;16.350;2023-10-08T12:26:09;100419.94;;;16.53;56.16
76623;BME280;73145;48.170;16.350;2023-10-08T12:28:35;100423.75;;;16.52;55.98
76623;BME280;73145;48.170;16.350;2023-10-08T12:31:02;100427.53;;;16.51;55.95
76623;BME280;73145;48.170;16.350;2023-10-08T12:33:30;100425.66;;;16.47;55.94
76623;BME280;73145;48.170;16.350;2023-10-08T12:35:57;100426.75;;;16.46;56.21
76623;BME280;73145;48.170;16.350;2023-10-08T12:38:26;100427.31;;;16.43;55.72
76623;BME280;73145;48.170;16.350;2023-10-08T12:40:55;100426.00;;;16.40;56.03
76623;BME280;73145;48.170;16.350;2023-10-08T12:43:33;100435.72;;;16.41;56.02
76623;BME280;73145;48.170;16.350;2023-10-08T12:46:03;100420.06;;;16.38;56.38
76623;BME280;73145;48.170;16.350;2023-10-08T12:48:29;100431.16;;;16.37;56.45
76623;BME280;73145;48.170;16.350;2023-10-08T12:50:55;100430.91;;;16.33;56.52
76623;BME280;73145;48.170;16.350;2023-10-08T12:53:30;100432.56;;;16.29;56.83
76623;BME280;73145;48.170;16.350;2023-10-08T12:56:00;100426.13;;;16.25;57.20
76623;BME280;73145;48.170;16.350;2023-10-08T12:58:34;100421.00;;;16.23;56.98
76623;BME280;73145;48.170;16.350;2023-10-08T13:01:13;100431.00;;;16.23;57.04
76623;BME280;73145;48.170;16.350;2023-10-08T13:03:40;100432.09;;;16.22;56.89
76623;BME280;73145;48.170;16.350;2023-10-08T13:06:14;100434.78;;;16.22;56.92
76623;BME280;73145;48.170;16.350;2023-10-08T13:08:51;100436.44;;;16.18;56.63
76623;BME280;73145;48.170;16.350;2023-10-08T13:11:20;100432.13;;;16.17;56.82
76623;BME280;73145;48.170;16.350;2023-10-08T13:13:54;100434.31;;;16.15;56.50
76623;BME280;73145;48.170;16.350;2023-10-08T13:16:25;100435.94;;;16.16;56.33
76623;BME280;73145;48.170;16.350;2023-10-08T13:18:52;100435.41;;;16.14;56.32
76623;BME280;73145;48.170;16.350;2023-10-08T13:21:22;100436.72;;;16.16;56.40
76623;BME280;73145;48.170;16.350;2023-10-08T13:23:52;100439.16;;;16.18;56.16